Latest Weather Observations for Toowoomba

IDQ60801

Issued at 3:02 pm EST Saturday 24 June 2017 (issued every 30 minutes, with the page automatically refreshed every 10 minutes)

About weather observations | Map of weather stations | Latest weather observations for QLD | Other Formats
Station Details ID: 041529 Name: TOOWOOMBA AIRPORT Lat: -27.54 Lon: 151.91 Height: 640.9 m
Data from the previous 72 hours. | See also: Recent months at Toowoomba
Date/Time
EST
Temp
°C
App
Temp
°C
Dew
Point
°C
Rel
Hum
%
Delta-T
°C
Wind Press
QNH
hPa
Press
MSL
hPa
Rain since
9am
mm
Dir  Spd
km/h
Gust
km/h
Spd
kts
Gust
kts
24/03:00pm 19.8 13.5 1.7 30 8.5 SW 24 32 13 17 1018.6 1017.9 0.0
24/02:30pm 19.8 14.1 3.1 33 8.1 WSW 22 32 12 17 1018.6 1017.9 0.0
24/02:00pm 19.8 13.6 2.2 31 8.4 WSW 24 30 13 16 1018.6 1017.9 0.0
24/01:30pm 19.6 14.0 3.3 34 7.9 WSW 22 30 12 16 1018.8 1018.1 0.0
24/01:00pm 19.4 13.8 3.2 34 7.8 SW 22 32 12 17 1018.9 1018.2 0.0
24/12:30pm 19.2 12.8 3.0 34 7.8 SW 26 37 14 20 1019.3 1018.6 0.0
24/12:00pm 18.8 12.7 2.6 34 7.7 WSW 24 33 13 18 1019.7 1019.1 0.0
24/11:30am 18.4 13.3 4.2 39 7.0 W 20 30 11 16 1020.1 1019.5 0.0
24/11:00am 18.0 13.1 4.2 40 6.7 W 19 28 10 15 1020.7 1020.0 0.0
24/10:30am 16.2 12.0 5.5 49 5.3 WNW 17 22 9 12 1021.1 1020.5 0.0
24/10:00am 14.5 10.3 5.8 56 4.3 W 17 22 9 12 1021.3 1020.7 0.0
24/09:30am 13.1 9.0 6.2 63 3.4 W 17 20 9 11 1021.4 1020.8 0.0
24/09:00am 12.1 7.4 5.3 63 3.3 W 19 26 10 14 1021.4 1020.8 0.0
24/08:30am 11.0 7.1 5.5 69 2.6 W 15 19 8 10 1021.1 1020.5 0.0
24/08:00am 9.8 5.9 5.2 73 2.2 WNW 15 20 8 11 1020.9 1020.2 0.0
24/07:30am 9.2 5.5 4.6 73 2.1 WNW 13 17 7 9 1020.6 1019.9 0.0
24/07:00am 9.1 5.4 4.7 74 2.0 WNW 13 19 7 10 1020.3 1019.6 0.0
24/06:30am 8.9 5.2 4.3 73 2.1 W 13 15 7 8 1020.0 1019.4 0.0
24/06:00am 9.4 5.3 4.4 71 2.3 WNW 15 19 8 10 1019.5 1018.8 0.0
24/05:30am 9.6 5.5 4.4 70 2.4 WNW 15 20 8 11 1019.3 1018.6 0.0
24/05:00am 9.8 5.3 4.4 69 2.5 WNW 17 20 9 11 1019.1 1018.4 0.0
24/04:30am 9.5 5.4 4.5 71 2.3 WNW 15 19 8 10 1018.9 1018.2 0.0
24/04:00am 9.8 5.7 4.6 70 2.4 WNW 15 17 8 9 1019.1 1018.4 0.0
24/03:30am 9.5 5.8 4.3 70 2.4 WNW 13 17 7 9 1019.2 1018.5 0.0
24/03:00am 10.3 6.3 4.7 68 2.6 WNW 15 19 8 10 1019.4 1018.7 0.0
24/02:30am 10.3 6.6 4.5 67 2.7 NW 13 15 7 8 1019.4 1018.7 0.0
24/02:00am 10.0 7.1 4.8 70 2.4 WNW 9 11 5 6 1019.5 1018.8 0.0
24/01:30am 10.7 7.9 5.3 69 2.6 WNW 9 11 5 6 1019.9 1019.3 0.0
24/01:00am 10.8 7.2 4.9 67 2.8 WNW 13 15 7 8 1020.3 1019.6 0.0
24/12:30am 11.4 8.1 4.6 63 3.2 WNW 11 13 6 7 1020.5 1019.8 0.0
24/12:00am 12.1 8.8 4.8 61 3.5 WNW 11 13 6 7 1020.6 1019.9 0.0
 
Date/Time
EST
Temp
°C
App
Temp
°C
Dew
Point
°C
Rel
Hum
%
Delta-T
°C
Wind Press
QNH
hPa
Press
MSL
hPa
Rain since
9am
mm
Dir  Spd
km/h
Gust
km/h
Spd
kts
Gust
kts
23/11:30pm 11.9 8.6 4.4 60 3.5 NW 11 11 6 6 1020.8 1020.1 0.0
23/11:00pm 11.4 9.1 4.6 63 3.2 W 6 9 3 5 1021.1 1020.5 0.0
23/10:30pm 12.6 9.3 4.8 59 3.7 WNW 11 11 6 6 1021.3 1020.7 0.0
23/10:00pm 12.7 10.2 4.9 59 3.7 W 7 9 4 5 1021.6 1021.0 0.0
23/09:30pm 13.1 12.0 5.0 58 3.9 CALM 0 7 0 4 1022.0 1021.3 0.0
23/09:00pm 13.3 12.3 5.5 59 3.8 CALM 0 0 0 0 1022.2 1021.5 0.0
23/08:30pm 13.6 12.5 5.3 57 4.0 CALM 0 0 0 0 1021.9 1021.2 0.0
23/08:00pm 14.1 13.1 5.5 56 4.2 CALM 0 0 0 0 1021.7 1021.1 0.0
23/07:30pm 13.8 12.9 5.9 59 3.9 CALM 0 0 0 0 1021.7 1021.1 0.0
23/07:00pm 13.6 12.6 5.5 58 3.9 CALM 0 0 0 0 1021.4 1020.8 0.0
23/06:30pm 14.6 13.6 5.7 55 4.4 CALM 0 0 0 0 1021.2 1020.6 0.0
23/06:00pm 14.9 14.0 6.0 55 4.4 CALM 0 0 0 0 1021.0 1020.3 0.0
23/05:30pm 15.6 13.4 5.5 51 5.0 WSW 6 9 3 5 1021.2 1020.6 0.0
23/05:00pm 15.9 12.9 5.8 51 5.0 WSW 11 15 6 8 1021.0 1020.3 0.0
23/04:30pm 17.3 14.0 6.5 49 5.5 WSW 13 17 7 9 1020.8 1020.1 0.0
23/04:00pm 18.1 14.7 6.0 45 6.1 W 13 19 7 10 1020.8 1020.1 0.0
23/03:30pm 18.5 15.1 6.0 44 6.4 WSW 13 20 7 11 1020.7 1020.0 0.0
23/03:00pm 18.8 15.0 6.0 43 6.5 WSW 15 22 8 12 1020.9 1020.2 0.0
23/02:30pm 18.6 14.4 5.5 42 6.6 W 17 26 9 14 1021.3 1020.7 0.0
23/02:00pm 18.5 14.2 5.4 42 6.6 W 17 26 9 14 1021.7 1021.1 0.0
23/01:30pm 18.5 14.3 5.7 43 6.5 W 17 28 9 15 1022.0 1021.3 0.0
23/01:00pm 17.8 13.7 6.0 46 6.0 WNW 17 24 9 13 1022.5 1021.9 0.0
23/12:30pm 17.5 13.8 6.1 47 5.8 W 15 22 8 12 1022.9 1022.3 0.0
23/12:00pm 16.8 12.5 5.4 47 5.6 W 17 26 9 14 1023.4 1022.8 0.0
23/11:30am 17.5 13.9 6.7 49 5.5 WNW 15 22 8 12 1024.1 1023.5 0.0
23/11:00am 17.2 14.2 5.8 47 5.7 W 11 17 6 9 1024.6 1024.0 0.0
23/10:30am 16.8 13.7 5.7 48 5.6 NW 11 13 6 7 1025.0 1024.4 0.0
23/10:00am 15.9 12.6 6.3 53 4.8 N 13 17 7 9 1025.5 1024.9 0.0
23/09:30am 15.3 12.7 6.3 55 4.5 NNW 9 15 5 8 1025.5 1024.9 0.0
23/09:00am 15.0 12.1 6.6 57 4.2 N 11 13 6 7 1025.4 1024.8 0.0
23/08:30am 14.6 12.7 7.4 62 3.7 ENE 7 9 4 5 1024.9 1024.3 0.0
23/08:00am 12.8 10.7 8.3 74 2.3 ENE 9 11 5 6 1024.7 1024.1 0.0
23/07:30am 9.9 7.1 7.0 82 1.4 ENE 11 13 6 7 1024.6 1024.0 0.0
23/07:00am 8.1 4.8 4.7 79 1.6 ENE 11 13 6 7 1024.4 1023.8 0.0
23/06:30am 8.6 5.5 5.4 80 1.5 E 11 11 6 6 1024.2 1023.6 0.0
23/06:00am 8.2 5.0 5.1 81 1.4 E 11 13 6 7 1023.9 1023.3 0.0
23/05:30am 7.3 4.1 5.1 86 1.0 E 11 13 6 7 1023.6 1022.9 0.0
23/05:00am 7.9 4.8 5.7 86 1.0 E 11 13 6 7 1023.6 1022.9 0.0
23/04:30am 7.0 3.6 5.9 93 0.5 E 13 15 7 8 1023.4 1022.8 0.0
23/04:00am 7.6 3.9 6.5 93 0.5 E 15 17 8 9 1023.7 1023.0 0.0
23/03:30am 7.3 3.9 5.8 90 0.7 E 13 13 7 7 1023.8 1023.2 0.0
23/03:00am 7.5 4.1 6.0 90 0.7 E 13 13 7 7 1024.0 1023.4 0.0
23/02:30am 9.3 6.9 6.9 85 1.2 E 9 11 5 6 1024.4 1023.8 0.0
23/02:00am 9.3 7.0 7.3 87 1.0 E 9 9 5 5 1024.6 1024.0 0.0
23/01:30am 9.0 6.4 7.6 91 0.7 E 11 11 6 6 1024.8 1024.2 0.0
23/01:00am 8.3 5.8 6.4 88 0.9 E 9 11 5 6 1025.0 1024.4 0.0
23/12:30am 8.3 5.0 6.3 87 1.0 E 13 13 7 7 1025.3 1024.7 0.0
23/12:00am 9.7 7.7 7.1 84 1.3 E 7 9 4 5 1025.6 1025.0 0.0
 
Date/Time
EST
Temp
°C
App
Temp
°C
Dew
Point
°C
Rel
Hum
%
Delta-T
°C
Wind Press
QNH
hPa
Press
MSL
hPa
Rain since
9am
mm
Dir  Spd
km/h
Gust
km/h
Spd
kts
Gust
kts
22/11:30pm 10.2 7.6 7.6 84 1.3 E 11 13 6 7 1025.8 1025.2 0.0
22/11:00pm 11.1 7.6 7.4 78 1.8 ENE 15 17 8 9 1025.9 1025.3 0.0
22/10:30pm 11.0 7.7 8.2 83 1.4 ENE 15 17 8 9 1026.0 1025.4 0.0
22/10:00pm 9.6 6.9 7.2 85 1.2 E 11 15 6 8 1026.0 1025.4 0.0
22/09:30pm 10.3 7.2 7.4 82 1.4 E 13 15 7 8 1026.2 1025.6 0.0
22/09:00pm 12.1 9.3 8.4 78 1.9 ENE 13 17 7 9 1026.2 1025.6 0.0
22/08:30pm 12.4 9.6 8.5 77 2.0 ENE 13 17 7 9 1026.3 1025.7 0.0
22/08:00pm 11.8 9.0 8.5 80 1.7 E 13 17 7 9 1026.4 1025.8 0.0
22/07:30pm 12.3 9.5 8.4 77 2.0 E 13 17 7 9 1026.2 1025.6 0.0
22/07:00pm 12.5 9.7 8.6 77 2.0 ESE 13 20 7 11 1026.1 1025.5 0.0
22/06:30pm 12.9 10.5 8.6 75 2.2 E 11 13 6 7 1025.9 1025.3 0.0
22/06:00pm 13.3 11.6 8.2 71 2.6 E 7 9 4 5 1025.6 1025.0 0.0
22/05:30pm 14.5 12.8 8.2 66 3.3 NE 7 9 4 5 1025.5 1024.9 0.0
22/05:00pm 15.4 13.3 8.2 62 3.7 NE 9 11 5 6 1025.4 1024.8 0.0
22/04:30pm 16.4 13.9 8.1 58 4.3 NE 11 15 6 8 1025.0 1024.4 0.0
22/04:00pm 16.9 14.4 8.1 56 4.6 ENE 11 19 6 10 1025.0 1024.4 0.0
22/03:30pm 17.3 14.3 7.9 54 4.9 ENE 13 17 7 9 1025.1 1024.6 0.0
22/03:00pm 17.5 15.0 8.1 54 4.9 NE 11 19 6 10 1025.0 1024.4 0.0
22/02:30pm 17.5 14.5 7.8 53 5.1 ENE 13 20 7 11 1025.0 1024.4 0.0
22/02:00pm 17.4 13.8 8.5 56 4.7 ENE 17 20 9 11 1025.3 1024.7 0.0
22/01:30pm 17.2 14.3 8.1 55 4.8 E 13 20 7 11 1025.5 1024.9 0.0
22/01:00pm 16.6 12.6 8.3 58 4.3 ESE 19 22 10 12 1025.6 1025.0 0.0
22/12:30pm 16.5 12.5 8.2 58 4.4 ESE 19 26 10 14 1026.1 1025.5 0.0
22/12:00pm 16.7 12.9 8.9 60 4.1 ESE 19 24 10 13 1026.5 1026.0 0.0
22/11:30am 16.2 12.1 8.7 61 4.0 E 20 28 11 15 1027.0 1026.4 0.0
22/11:00am 16.1 12.5 8.3 60 4.1 ESE 17 24 9 13 1027.6 1027.0 0.0
22/10:30am 15.7 12.1 8.2 61 3.9 E 17 24 9 13 1028.0 1027.5 0.0
22/10:00am 15.5 11.9 8.5 63 3.6 ESE 17 24 9 13 1028.2 1027.7 0.0
22/09:30am 14.6 11.2 7.6 63 3.6 ESE 15 22 8 12 1028.2 1027.7 0.0
22/09:00am 14.0 11.1 8.2 68 3.0 E 13 17 7 9 1028.1 1027.6 0.2
22/08:30am 13.2 12.2 7.2 67 3.0 SE 2 7 1 4 1027.9 1027.4 0.2
22/08:00am 12.6 12.2 8.3 75 2.2 CALM 0 0 0 0 1027.8 1027.3 0.2
22/07:30am 10.8 10.1 7.1 78 1.8 CALM 0 0 0 0 1027.5 1026.9 0.2
22/07:00am 9.5 8.9 7.4 87 1.0 CALM 0 4 0 2 1027.1 1026.5 0.2
22/06:30am 8.6 7.2 7.4 92 0.6 SE 4 7 2 4 1026.9 1026.3 0.2
22/06:00am 8.6 7.6 7.2 91 0.7 ESE 2 6 1 3 1026.5 1026.0 0.2
22/05:30am 8.2 6.3 6.7 90 0.7 ESE 6 6 3 3 1026.2 1025.6 0.2
22/05:00am 8.7 6.8 7.5 92 0.6 SE 7 7 4 4 1025.9 1025.3 0.2
22/04:30am 7.7 5.5 6.2 90 0.7 SE 7 9 4 5 1025.8 1025.2 0.2
22/04:00am 8.1 5.5 6.2 88 0.9 SE 9 9 5 5 1025.7 1025.1 0.2
22/03:30am 8.6 6.1 6.7 88 0.9 ESE 9 11 5 6 1025.7 1025.1 0.2
22/03:00am 7.6 4.2 5.7 88 0.9 ESE 13 15 7 8 1025.4 1024.8 0.2
22/02:30am 8.6 5.6 6.2 85 1.1 SE 11 13 6 7 1025.6 1025.0 0.2
22/02:00am 9.5 7.0 6.6 82 1.4 ESE 9 9 5 5 1025.6 1025.0 0.2
22/01:30am 9.7 7.3 6.8 82 1.4 SE 9 9 5 5 1025.7 1025.1 0.2
22/01:00am 9.5 7.1 6.9 84 1.3 SE 9 11 5 6 1025.7 1025.1 0.2
22/12:30am 9.2 6.8 7.2 87 1.0 SE 9 11 5 6 1025.9 1025.3 0.2
22/12:00am 9.3 7.0 7.6 89 0.8 ESE 9 11 5 6 1026.0 1025.4 0.2
 
Date/Time
EST
Temp
°C
App
Temp
°C
Dew
Point
°C
Rel
Hum
%
Delta-T
°C
Wind Press
QNH
hPa
Press
MSL
hPa
Rain since
9am
mm
Dir  Spd
km/h
Gust
km/h
Spd
kts
Gust
kts
21/11:30pm 9.4 6.7 7.3 87 1.0 ESE 11 13 6 7 1026.3 1025.7 0.2
21/11:00pm 9.9 7.7 7.7 86 1.1 E 9 11 5 6 1026.5 1026.0 0.2
21/10:30pm 9.7 7.0 7.3 85 1.2 E 11 13 6 7 1026.6 1026.1 0.2
21/10:00pm 10.2 7.5 7.3 82 1.4 E 11 11 6 6 1027.1 1026.5 0.2
21/09:30pm 10.5 7.9 7.6 82 1.4 E 11 13 6 7 1027.2 1026.6 0.2
21/09:00pm 11.1 8.6 8.3 83 1.4 E 11 13 6 7 1027.2 1026.6 0.2
21/08:30pm 10.3 7.6 7.4 82 1.4 E 11 13 6 7 1027.0 1026.4 0.2
21/08:00pm 10.9 8.1 7.0 77 1.9 ESE 11 13 6 7 1026.4 1025.8 0.2
21/07:30pm 11.4 8.4 7.7 78 1.9 E 13 15 7 8 1025.9 1025.3 0.2
21/07:00pm 11.4 9.0 7.1 75 2.1 E 9 11 5 6 1025.7 1025.1 0.2
21/06:30pm 11.6 8.7 6.5 71 2.5 E 11 11 6 6 1025.3 1024.7 0.2
21/06:00pm 13.0 10.9 6.8 66 3.1 ESE 7 9 4 5 1024.9 1024.3 0.2
21/05:30pm 13.4 10.1 6.5 63 3.4 E 13 15 7 8 1024.6 1024.0 0.2
21/05:00pm 15.2 12.2 6.0 54 4.6 SE 11 15 6 8 1024.4 1023.8 0.2
21/04:30pm 16.8 12.9 5.4 47 5.7 SSE 15 20 8 11 1024.2 1023.6 0.2
21/04:00pm 17.4 13.6 6.0 47 5.7 S 15 19 8 10 1023.9 1023.3 0.2
21/03:30pm 17.8 14.0 6.0 46 6.0 S 15 20 8 11 1023.8 1023.2 0.2

Other Formats:

Comma delimited format used in spreadsheet applications
http://www.bom.gov.au/fwo/IDQ60801/IDQ60801.95551.axf

JavaScript Object Notation format (JSON) in row-major order
http://www.bom.gov.au/fwo/IDQ60801/IDQ60801.95551.json